TimeEDT,TemperatureF,Dew PointF,Humidity,Sea Level PressureIn,VisibilityMPH,Wind Direction,Wind SpeedMPH,Gust SpeedMPH,PrecipitationIn,Events,Conditions,WindDirDegrees,DateUTC
12:53 AM,66.9,57.0,70,29.84,10.0,SSE,4.6,-,N/A,,Clear,160,2012-06-18 04:53:00
1:53 AM,63.0,55.9,78,29.85,10.0,SSE,3.5,-,N/A,,Clear,150,2012-06-18 05:53:00
2:53 AM,64.9,57.9,78,29.83,10.0,South,4.6,-,N/A,,Clear,180,2012-06-18 06:53:00
3:53 AM,66.0,57.9,75,29.83,10.0,SSE,4.6,-,N/A,,Clear,160,2012-06-18 07:53:00
4:53 AM,64.0,57.9,80,29.83,10.0,SSE,3.5,-,N/A,,Clear,150,2012-06-18 08:53:00
5:53 AM,64.0,59.0,84,29.82,10.0,SSE,4.6,-,N/A,,Clear,160,2012-06-18 09:53:00
6:53 AM,64.9,60.1,84,29.81,10.0,South,4.6,-,N/A,,Clear,170,2012-06-18 10:53:00
7:53 AM,69.1,61.0,75,29.81,10.0,South,6.9,-,N/A,,Clear,170,2012-06-18 11:53:00
8:53 AM,72.0,63.0,73,29.82,10.0,South,8.1,-,N/A,,Clear,180,2012-06-18 12:53:00
9:53 AM,77.0,66.0,69,29.82,10.0,South,13.8,-,N/A,,Scattered Clouds,180,2012-06-18 13:53:00
10:07 AM,75.2,66.2,73,29.83,10.0,South,11.5,18.4,N/A,,Mostly Cloudy,180,2012-06-18 14:07:00
10:53 AM,78.1,68.0,71,29.81,10.0,South,10.4,-,N/A,,Mostly Cloudy,190,2012-06-18 14:53:00
11:44 AM,73.4,64.4,73,29.84,10.0,East,6.9,-,N/A,,Mostly Cloudy,80,2012-06-18 15:44:00
11:53 AM,75.9,64.9,69,29.84,10.0,East,8.1,-,N/A,,Overcast,80,2012-06-18 15:53:00
12:18 PM,78.8,64.4,61,29.84,10.0,Variable,4.6,-,N/A,,Scattered Clouds,0,2012-06-18 16:18:00
12:53 PM,81.0,66.9,62,29.81,10.0,East,9.2,-,N/A,,Partly Cloudy,100,2012-06-18 16:53:00
1:53 PM,87.1,70.0,57,29.79,10.0,Variable,3.5,-,N/A,,Partly Cloudy,0,2012-06-18 17:53:00
2:53 PM,93.0,66.9,42,29.77,10.0,SW,18.4,27.6,N/A,,Scattered Clouds,220,2012-06-18 18:53:00
3:53 PM,91.9,66.0,42,29.75,10.0,SSW,17.3,28.8,N/A,,Partly Cloudy,200,2012-06-18 19:53:00
4:53 PM,93.0,64.9,39,29.74,10.0,SSW,18.4,27.6,N/A,,Partly Cloudy,210,2012-06-18 20:53:00
5:53 PM,91.0,64.0,41,29.73,10.0,SSW,25.3,34.5,N/A,,Clear,210,2012-06-18 21:53:00
6:53 PM,91.0,62.1,38,29.73,10.0,SSW,17.3,31.1,N/A,,Clear,210,2012-06-18 22:53:00
7:53 PM,88.0,63.0,43,29.75,10.0,SSW,17.3,26.5,N/A,,Clear,210,2012-06-18 23:53:00
8:53 PM,87.1,64.0,46,29.78,10.0,SW,12.7,24.2,N/A,,Clear,220,2012-06-19 00:53:00
9:53 PM,84.9,64.0,49,29.79,10.0,SSW,13.8,25.3,N/A,,Clear,210,2012-06-19 01:53:00
10:53 PM,84.0,64.0,51,29.83,10.0,SSW,12.7,19.6,N/A,,Clear,210,2012-06-19 02:53:00
11:53 PM,82.0,64.9,56,29.85,10.0,SSW,9.2,18.4,N/A,,Clear,200,2012-06-19 03:53:00